This is the latest recevied weather packets stored in our database for station/object W6DSP. If no packets are shown the sender has not sent any weather packets the latest 10 day(s).
| Time | Temp. | Humidity | Pressure | Rain* | Wind** | Luminosity | Snow |
|---|---|---|---|---|---|---|---|
| 1777613321 | 8.89° C | 88% | 1014.6 hPa | 0 mm | - | - | - |
| 1777612588 | 8.89° C | 87% | 1014.7 hPa | 0 mm | - | - | - |
| 1777611151 | 8.89° C | 86% | 1014.8 hPa | 0 mm | - | - | - |
| 1777610418 | 8.89° C | 86% | 1015 hPa | 0 mm | - | - | - |
| 1777609708 | 8.89° C | 85% | 1015.1 hPa | 0 mm | - | - | - |
| 1777608949 | 9.44° C | 84% | 1015.2 hPa | 0 mm | - | - | - |
| 1777608242 | 9.44° C | 81% | 1015.2 hPa | 0 mm | - | - | - |
| 1777607498 | 10° C | 79% | 1015.3 hPa | 0 mm | - | - | - |
| 1777606742 | 10° C | 76% | 1015.2 hPa | 0 mm | - | - | - |
| 1777605992 | 10.56° C | 74% | 1015.2 hPa | 0 mm | - | - | - |
| 1777605269 | 11.11° C | 71% | 1015.3 hPa | 0 mm | - | - | - |
| 1777604552 | 11.11° C | 69% | 1015.4 hPa | 0 mm | - | - | - |
| 1777603074 | 11.11° C | 71% | 1015.5 hPa | 0 mm | - | - | - |
| 1777602347 | 11.11° C | 74% | 1015.5 hPa | 0 mm | - | - | - |
| 1777601647 | 11.11° C | 75% | 1015.4 hPa | 0 mm | - | - | - |
| 1777587184 | 14.44° C | 54% | 1015.3 hPa | 0 mm | - | - | - |
| 1777584947 | 14.44° C | 51% | 1015.5 hPa | 0 mm | - | - | - |
| 1777584222 | 13.33° C | 57% | 1015.6 hPa | 0 mm | - | - | - |
| 1777582796 | 13.89° C | 57% | 1015.9 hPa | 0 mm | - | - | - |
| 1777579885 | 14.44° C | 55% | 1016.2 hPa | 0 mm | - | - | - |
| 1777579192 | 15° C | 56% | 1016.2 hPa | 0 mm | - | - | - |
| 1777577698 | 14.44° C | 54% | 1016.5 hPa | 0 mm | - | - | - |
| 1777576268 | 13.89° C | 51% | 1016.7 hPa | 0 mm | - | - | - |
| 1777574048 | 12.78° C | 48% | 1016.7 hPa | 0 mm | - | - | - |
| 1777572634 | 12.78° C | 49% | 1017.1 hPa | 0 mm | - | - | - |
* Rain latest hour (hover to see other rain measurements)
** Current wind speed in m/s (hover to see current wind gust speed)